sensor_id;sensor_type;location;lat;lon;timestamp;P1;durP1;ratioP1;P2;durP2;ratioP2
72949;SDS011;62720;45.710;9.590;2022-08-19T00:02:19;4.65;;;1.30;;
72949;SDS011;62720;45.710;9.590;2022-08-19T00:04:44;8.00;;;1.63;;
72949;SDS011;62720;45.710;9.590;2022-08-19T00:07:11;4.80;;;1.48;;
72949;SDS011;62720;45.710;9.590;2022-08-19T00:09:38;6.90;;;1.40;;
72949;SDS011;62720;45.710;9.590;2022-08-19T00:12:03;8.20;;;1.70;;
72949;SDS011;62720;45.710;9.590;2022-08-19T00:14:29;3.70;;;1.30;;
72949;SDS011;62720;45.710;9.590;2022-08-19T00:16:56;4.55;;;1.30;;
72949;SDS011;62720;45.710;9.590;2022-08-19T00:19:22;13.25;;;1.63;;
72949;SDS011;62720;45.710;9.590;2022-08-19T00:21:47;7.72;;;1.75;;
72949;SDS011;62720;45.710;9.590;2022-08-19T00:24:13;6.03;;;1.63;;
72949;SDS011;62720;45.710;9.590;2022-08-19T00:26:39;6.60;;;1.67;;
72949;SDS011;62720;45.710;9.590;2022-08-19T00:29:05;3.83;;;1.20;;
72949;SDS011;62720;45.710;9.590;2022-08-19T00:31:31;6.90;;;1.70;;
72949;SDS011;62720;45.710;9.590;2022-08-19T00:33:56;7.28;;;1.52;;
72949;SDS011;62720;45.710;9.590;2022-08-19T00:36:22;7.90;;;1.33;;
72949;SDS011;62720;45.710;9.590;2022-08-19T00:38:47;5.15;;;1.45;;
72949;SDS011;62720;45.710;9.590;2022-08-19T00:41:14;6.78;;;1.58;;
72949;SDS011;62720;45.710;9.590;2022-08-19T00:43:39;5.45;;;1.52;;
72949;SDS011;62720;45.710;9.590;2022-08-19T00:46:05;5.57;;;1.60;;
72949;SDS011;62720;45.710;9.590;2022-08-19T00:48:31;5.53;;;1.30;;
72949;SDS011;62720;45.710;9.590;2022-08-19T00:50:56;4.68;;;1.40;;
72949;SDS011;62720;45.710;9.590;2022-08-19T00:53:23;3.97;;;1.20;;
72949;SDS011;62720;45.710;9.590;2022-08-19T00:55:49;3.83;;;1.10;;
72949;SDS011;62720;45.710;9.590;2022-08-19T00:58:16;6.53;;;1.80;;
72949;SDS011;62720;45.710;9.590;2022-08-19T01:00:43;4.78;;;1.15;;
72949;SDS011;62720;45.710;9.590;2022-08-19T01:03:09;4.50;;;1.45;;
72949;SDS011;62720;45.710;9.590;2022-08-19T01:05:35;6.50;;;1.40;;
72949;SDS011;62720;45.710;9.590;2022-08-19T01:08:02;5.22;;;1.33;;
72949;SDS011;62720;45.710;9.590;2022-08-19T01:10:30;9.70;;;1.65;;
72949;SDS011;62720;45.710;9.590;2022-08-19T01:12:57;4.45;;;1.30;;
72949;SDS011;62720;45.710;9.590;2022-08-19T01:15:25;4.38;;;1.30;;
72949;SDS011;62720;45.710;9.590;2022-08-19T01:17:51;4.90;;;1.40;;
72949;SDS011;62720;45.710;9.590;2022-08-19T01:20:20;6.80;;;1.45;;
72949;SDS011;62720;45.710;9.590;2022-08-19T01:22:51;4.95;;;1.25;;
72949;SDS011;62720;45.710;9.590;2022-08-19T01:25:18;6.00;;;1.60;;
72949;SDS011;62720;45.710;9.590;2022-08-19T01:27:44;4.28;;;1.38;;
72949;SDS011;62720;45.710;9.590;2022-08-19T01:30:21;7.97;;;1.85;;
72949;SDS011;62720;45.710;9.590;2022-08-19T01:32:47;5.30;;;1.25;;
72949;SDS011;62720;45.710;9.590;2022-08-19T01:35:13;6.32;;;1.80;;
72949;SDS011;62720;45.710;9.590;2022-08-19T01:37:49;7.00;;;1.50;;
72949;SDS011;62720;45.710;9.590;2022-08-19T01:40:15;5.93;;;1.50;;
72949;SDS011;62720;45.710;9.590;2022-08-19T01:42:41;8.05;;;1.63;;
72949;SDS011;62720;45.710;9.590;2022-08-19T01:45:06;5.55;;;1.60;;
72949;SDS011;62720;45.710;9.590;2022-08-19T01:47:33;6.03;;;1.55;;
72949;SDS011;62720;45.710;9.590;2022-08-19T01:49:58;5.85;;;1.85;;
72949;SDS011;62720;45.710;9.590;2022-08-19T01:52:23;5.67;;;1.40;;
72949;SDS011;62720;45.710;9.590;2022-08-19T01:54:49;4.88;;;1.40;;
72949;SDS011;62720;45.710;9.590;2022-08-19T01:57:14;3.83;;;1.37;;
72949;SDS011;62720;45.710;9.590;2022-08-19T01:59:41;5.57;;;1.10;;
72949;SDS011;62720;45.710;9.590;2022-08-19T02:02:07;4.93;;;1.25;;
72949;SDS011;62720;45.710;9.590;2022-08-19T02:04:33;5.63;;;1.20;;
72949;SDS011;62720;45.710;9.590;2022-08-19T02:06:59;3.78;;;1.15;;
72949;SDS011;62720;45.710;9.590;2022-08-19T02:09:24;5.93;;;1.20;;
72949;SDS011;62720;45.710;9.590;2022-08-19T02:11:49;8.13;;;1.60;;
72949;SDS011;62720;45.710;9.590;2022-08-19T02:14:14;3.77;;;1.27;;
72949;SDS011;62720;45.710;9.590;2022-08-19T02:16:40;5.60;;;1.25;;
72949;SDS011;62720;45.710;9.590;2022-08-19T02:19:05;4.90;;;1.30;;
72949;SDS011;62720;45.710;9.590;2022-08-19T02:21:30;4.88;;;1.20;;
72949;SDS011;62720;45.710;9.590;2022-08-19T02:23:56;6.35;;;1.23;;
72949;SDS011;62720;45.710;9.590;2022-08-19T02:26:22;4.43;;;1.30;;
72949;SDS011;62720;45.710;9.590;2022-08-19T02:28:47;5.32;;;1.60;;
72949;SDS011;62720;45.710;9.590;2022-08-19T02:31:14;4.25;;;1.38;;
72949;SDS011;62720;45.710;9.590;2022-08-19T02:33:40;6.93;;;1.40;;
72949;SDS011;62720;45.710;9.590;2022-08-19T02:36:05;4.10;;;1.35;;
72949;SDS011;62720;45.710;9.590;2022-08-19T02:38:31;4.28;;;1.27;;
72949;SDS011;62720;45.710;9.590;2022-08-19T02:40:58;6.13;;;1.60;;
72949;SDS011;62720;45.710;9.590;2022-08-19T02:43:24;4.43;;;1.20;;
72949;SDS011;62720;45.710;9.590;2022-08-19T02:45:50;4.65;;;1.23;;
72949;SDS011;62720;45.710;9.590;2022-08-19T02:48:17;5.53;;;1.30;;
72949;SDS011;62720;45.710;9.590;2022-08-19T02:50:43;6.30;;;1.20;;
72949;SDS011;62720;45.710;9.590;2022-08-19T02:53:08;5.25;;;1.40;;
72949;SDS011;62720;45.710;9.590;2022-08-19T02:55:33;5.88;;;1.20;;
72949;SDS011;62720;45.710;9.590;2022-08-19T02:57:59;4.93;;;1.40;;
72949;SDS011;62720;45.710;9.590;2022-08-19T03:00:25;4.75;;;1.30;;
72949;SDS011;62720;45.710;9.590;2022-08-19T03:02:51;5.43;;;1.35;;
72949;SDS011;62720;45.710;9.590;2022-08-19T03:05:16;4.78;;;1.40;;
72949;SDS011;62720;45.710;9.590;2022-08-19T03:07:41;6.93;;;1.30;;
72949;SDS011;62720;45.710;9.590;2022-08-19T03:10:06;9.55;;;1.63;;
72949;SDS011;62720;45.710;9.590;2022-08-19T03:12:34;4.90;;;1.38;;
72949;SDS011;62720;45.710;9.590;2022-08-19T03:15:00;7.10;;;1.30;;
72949;SDS011;62720;45.710;9.590;2022-08-19T03:17:25;3.50;;;0.98;;
72949;SDS011;62720;45.710;9.590;2022-08-19T03:19:50;6.10;;;1.40;;
72949;SDS011;62720;45.710;9.590;2022-08-19T03:22:16;4.43;;;1.33;;
72949;SDS011;62720;45.710;9.590;2022-08-19T03:24:41;7.35;;;1.63;;
72949;SDS011;62720;45.710;9.590;2022-08-19T03:27:06;4.23;;;1.10;;
72949;SDS011;62720;45.710;9.590;2022-08-19T03:29:32;3.73;;;1.37;;
72949;SDS011;62720;45.710;9.590;2022-08-19T03:31:58;5.35;;;1.40;;
72949;SDS011;62720;45.710;9.590;2022-08-19T03:34:26;7.05;;;1.45;;
72949;SDS011;62720;45.710;9.590;2022-08-19T03:36:53;5.07;;;1.50;;
72949;SDS011;62720;45.710;9.590;2022-08-19T03:39:19;8.52;;;1.67;;
72949;SDS011;62720;45.710;9.590;2022-08-19T03:41:45;5.03;;;1.40;;
72949;SDS011;62720;45.710;9.590;2022-08-19T03:44:11;4.13;;;1.10;;
72949;SDS011;62720;45.710;9.590;2022-08-19T03:46:36;3.97;;;1.27;;
72949;SDS011;62720;45.710;9.590;2022-08-19T03:49:02;6.95;;;1.38;;
72949;SDS011;62720;45.710;9.590;2022-08-19T03:51:33;6.35;;;1.35;;
72949;SDS011;62720;45.710;9.590;2022-08-19T03:54:00;6.18;;;1.42;;
72949;SDS011;62720;45.710;9.590;2022-08-19T03:56:26;5.13;;;1.20;;
72949;SDS011;62720;45.710;9.590;2022-08-19T03:58:53;8.95;;;1.20;;
72949;SDS011;62720;45.710;9.590;2022-08-19T04:01:22;5.45;;;1.20;;
72949;SDS011;62720;45.710;9.590;2022-08-19T04:03:47;6.22;;;1.10;;
72949;SDS011;62720;45.710;9.590;2022-08-19T04:06:13;3.67;;;1.00;;
72949;SDS011;62720;45.710;9.590;2022-08-19T04:08:42;5.22;;;1.30;;
72949;SDS011;62720;45.710;9.590;2022-08-19T04:11:08;3.85;;;1.20;;
72949;SDS011;62720;45.710;9.590;2022-08-19T04:13:34;6.50;;;0.95;;
72949;SDS011;62720;45.710;9.590;2022-08-19T04:15:59;7.25;;;1.42;;
72949;SDS011;62720;45.710;9.590;2022-08-19T04:18:24;5.00;;;1.10;;
72949;SDS011;62720;45.710;9.590;2022-08-19T04:20:50;4.65;;;1.20;;
72949;SDS011;62720;45.710;9.590;2022-08-19T04:23:15;5.72;;;1.35;;
72949;SDS011;62720;45.710;9.590;2022-08-19T04:25:42;3.38;;;1.10;;
72949;SDS011;62720;45.710;9.590;2022-08-19T04:28:09;5.05;;;1.20;;
72949;SDS011;62720;45.710;9.590;2022-08-19T04:30:48;5.20;;;1.27;;
72949;SDS011;62720;45.710;9.590;2022-08-19T04:33:14;5.93;;;1.45;;
72949;SDS011;62720;45.710;9.590;2022-08-19T04:35:41;4.70;;;1.25;;
72949;SDS011;62720;45.710;9.590;2022-08-19T04:38:07;7.63;;;1.48;;
72949;SDS011;62720;45.710;9.590;2022-08-19T04:40:32;7.32;;;1.30;;
72949;SDS011;62720;45.710;9.590;2022-08-19T04:43:16;6.78;;;1.20;;
72949;SDS011;62720;45.710;9.590;2022-08-19T04:45:43;5.72;;;1.25;;
72949;SDS011;62720;45.710;9.590;2022-08-19T04:48:08;5.97;;;1.10;;
72949;SDS011;62720;45.710;9.590;2022-08-19T04:50:34;4.15;;;1.30;;
72949;SDS011;62720;45.710;9.590;2022-08-19T04:52:59;4.78;;;1.50;;
72949;SDS011;62720;45.710;9.590;2022-08-19T04:55:25;5.10;;;1.20;;
72949;SDS011;62720;45.710;9.590;2022-08-19T04:57:53;5.72;;;1.10;;
72949;SDS011;62720;45.710;9.590;2022-08-19T05:00:18;3.45;;;1.13;;
72949;SDS011;62720;45.710;9.590;2022-08-19T05:02:44;5.47;;;1.40;;
72949;SDS011;62720;45.710;9.590;2022-08-19T05:05:09;8.30;;;1.97;;
72949;SDS011;62720;45.710;9.590;2022-08-19T05:07:34;4.25;;;1.20;;
72949;SDS011;62720;45.710;9.590;2022-08-19T05:10:00;5.10;;;1.10;;
72949;SDS011;62720;45.710;9.590;2022-08-19T05:12:26;8.50;;;1.20;;
72949;SDS011;62720;45.710;9.590;2022-08-19T05:14:52;8.23;;;1.35;;
72949;SDS011;62720;45.710;9.590;2022-08-19T05:17:17;15.27;;;1.53;;
72949;SDS011;62720;45.710;9.590;2022-08-19T05:19:43;2.72;;;0.80;;
72949;SDS011;62720;45.710;9.590;2022-08-19T05:22:26;7.28;;;1.20;;
72949;SDS011;62720;45.710;9.590;2022-08-19T05:24:59;6.72;;;1.30;;
72949;SDS011;62720;45.710;9.590;2022-08-19T05:27:25;7.60;;;1.38;;
72949;SDS011;62720;45.710;9.590;2022-08-19T05:29:50;5.43;;;1.30;;
72949;SDS011;62720;45.710;9.590;2022-08-19T05:32:15;4.25;;;1.00;;
72949;SDS011;62720;45.710;9.590;2022-08-19T05:34:41;4.05;;;1.30;;
72949;SDS011;62720;45.710;9.590;2022-08-19T05:37:06;4.40;;;1.15;;
72949;SDS011;62720;45.710;9.590;2022-08-19T05:39:33;5.50;;;1.40;;
72949;SDS011;62720;45.710;9.590;2022-08-19T05:41:59;7.57;;;1.30;;
72949;SDS011;62720;45.710;9.590;2022-08-19T05:44:25;19.17;;;2.10;;
72949;SDS011;62720;45.710;9.590;2022-08-19T05:46:51;6.28;;;1.08;;
72949;SDS011;62720;45.710;9.590;2022-08-19T05:49:18;5.65;;;1.10;;
72949;SDS011;62720;45.710;9.590;2022-08-19T05:51:43;5.93;;;1.20;;
72949;SDS011;62720;45.710;9.590;2022-08-19T05:54:09;3.50;;;0.93;;
72949;SDS011;62720;45.710;9.590;2022-08-19T05:56:36;3.53;;;1.00;;
72949;SDS011;62720;45.710;9.590;2022-08-19T05:59:03;3.15;;;0.90;;
72949;SDS011;62720;45.710;9.590;2022-08-19T06:01:34;5.18;;;1.30;;
72949;SDS011;62720;45.710;9.590;2022-08-19T06:03:59;4.63;;;1.10;;
72949;SDS011;62720;45.710;9.590;2022-08-19T06:06:25;8.10;;;1.33;;
72949;SDS011;62720;45.710;9.590;2022-08-19T06:08:50;4.70;;;1.25;;
72949;SDS011;62720;45.710;9.590;2022-08-19T06:13:48;4.38;;;1.08;;
72949;SDS011;62720;45.710;9.590;2022-08-19T06:16:17;4.60;;;1.00;;
72949;SDS011;62720;45.710;9.590;2022-08-19T06:18:47;6.05;;;1.30;;
72949;SDS011;62720;45.710;9.590;2022-08-19T06:21:13;9.82;;;1.50;;
72949;SDS011;62720;45.710;9.590;2022-08-19T06:23:39;5.95;;;1.75;;
72949;SDS011;62720;45.710;9.590;2022-08-19T06:26:05;13.30;;;2.38;;
72949;SDS011;62720;45.710;9.590;2022-08-19T06:28:30;8.07;;;2.53;;
72949;SDS011;62720;45.710;9.590;2022-08-19T06:30:57;9.68;;;2.90;;
72949;SDS011;62720;45.710;9.590;2022-08-19T06:33:23;10.02;;;3.28;;
72949;SDS011;62720;45.710;9.590;2022-08-19T06:35:48;8.37;;;3.10;;
72949;SDS011;62720;45.710;9.590;2022-08-19T06:38:13;6.83;;;3.47;;
72949;SDS011;62720;45.710;9.590;2022-08-19T06:40:39;7.38;;;3.45;;
72949;SDS011;62720;45.710;9.590;2022-08-19T06:43:04;12.23;;;4.22;;
72949;SDS011;62720;45.710;9.590;2022-08-19T06:45:29;7.85;;;3.58;;
72949;SDS011;62720;45.710;9.590;2022-08-19T06:47:55;9.68;;;3.33;;
72949;SDS011;62720;45.710;9.590;2022-08-19T06:50:23;12.55;;;4.18;;
72949;SDS011;62720;45.710;9.590;2022-08-19T06:52:49;7.55;;;3.30;;
72949;SDS011;62720;45.710;9.590;2022-08-19T06:55:14;8.75;;;3.10;;
72949;SDS011;62720;45.710;9.590;2022-08-19T06:57:40;8.63;;;2.70;;
72949;SDS011;62720;45.710;9.590;2022-08-19T07:00:07;11.45;;;2.72;;
72949;SDS011;62720;45.710;9.590;2022-08-19T07:02:36;9.52;;;3.08;;
72949;SDS011;62720;45.710;9.590;2022-08-19T07:05:02;9.95;;;2.70;;
72949;SDS011;62720;45.710;9.590;2022-08-19T07:07:28;7.20;;;1.95;;
72949;SDS011;62720;45.710;9.590;2022-08-19T07:09:54;13.13;;;2.17;;
72949;SDS011;62720;45.710;9.590;2022-08-19T07:12:19;7.82;;;2.00;;
72949;SDS011;62720;45.710;9.590;2022-08-19T07:14:44;6.43;;;2.07;;
72949;SDS011;62720;45.710;9.590;2022-08-19T07:17:11;7.20;;;2.20;;
72949;SDS011;62720;45.710;9.590;2022-08-19T07:19:36;9.07;;;2.53;;
72949;SDS011;62720;45.710;9.590;2022-08-19T07:22:03;9.38;;;3.03;;
72949;SDS011;62720;45.710;9.590;2022-08-19T07:24:29;6.88;;;2.92;;
72949;SDS011;62720;45.710;9.590;2022-08-19T07:26:55;8.13;;;3.70;;
72949;SDS011;62720;45.710;9.590;2022-08-19T07:29:22;10.18;;;3.65;;
72949;SDS011;62720;45.710;9.590;2022-08-19T07:31:48;9.18;;;3.42;;
72949;SDS011;62720;45.710;9.590;2022-08-19T07:34:13;10.23;;;3.47;;
72949;SDS011;62720;45.710;9.590;2022-08-19T07:36:39;11.65;;;3.20;;
72949;SDS011;62720;45.710;9.590;2022-08-19T07:39:17;8.93;;;2.85;;
72949;SDS011;62720;45.710;9.590;2022-08-19T07:41:42;8.00;;;3.33;;
72949;SDS011;62720;45.710;9.590;2022-08-19T07:44:08;12.98;;;3.72;;
72949;SDS011;62720;45.710;9.590;2022-08-19T07:46:34;8.82;;;3.13;;
72949;SDS011;62720;45.710;9.590;2022-08-19T07:49:00;7.03;;;2.67;;
72949;SDS011;62720;45.710;9.590;2022-08-19T07:51:26;10.07;;;3.90;;
72949;SDS011;62720;45.710;9.590;2022-08-19T07:53:52;10.15;;;4.20;;
72949;SDS011;62720;45.710;9.590;2022-08-19T07:56:18;8.68;;;4.20;;
72949;SDS011;62720;45.710;9.590;2022-08-19T07:58:44;10.32;;;4.22;;
72949;SDS011;62720;45.710;9.590;2022-08-19T08:01:11;9.55;;;3.80;;
72949;SDS011;62720;45.710;9.590;2022-08-19T08:03:37;11.85;;;4.30;;
72949;SDS011;62720;45.710;9.590;2022-08-19T08:06:20;11.50;;;4.55;;
72949;SDS011;62720;45.710;9.590;2022-08-19T08:09:05;9.30;;;3.78;;
72949;SDS011;62720;45.710;9.590;2022-08-19T08:11:37;8.13;;;3.13;;
72949;SDS011;62720;45.710;9.590;2022-08-19T08:14:02;8.18;;;3.00;;
72949;SDS011;62720;45.710;9.590;2022-08-19T08:16:28;8.33;;;2.80;;
72949;SDS011;62720;45.710;9.590;2022-08-19T08:18:55;8.38;;;2.28;;
72949;SDS011;62720;45.710;9.590;2022-08-19T08:21:20;9.30;;;2.38;;
72949;SDS011;62720;45.710;9.590;2022-08-19T08:23:45;5.88;;;2.10;;
72949;SDS011;62720;45.710;9.590;2022-08-19T08:26:11;11.10;;;2.50;;
72949;SDS011;62720;45.710;9.590;2022-08-19T08:28:39;13.05;;;2.45;;
72949;SDS011;62720;45.710;9.590;2022-08-19T08:31:04;15.75;;;2.72;;
72949;SDS011;62720;45.710;9.590;2022-08-19T08:33:30;7.22;;;2.70;;
72949;SDS011;62720;45.710;9.590;2022-08-19T08:35:56;10.65;;;4.20;;
72949;SDS011;62720;45.710;9.590;2022-08-19T08:38:21;8.07;;;3.28;;
72949;SDS011;62720;45.710;9.590;2022-08-19T08:40:53;13.80;;;5.30;;
72949;SDS011;62720;45.710;9.590;2022-08-19T08:46:07;12.43;;;5.23;;
72949;SDS011;62720;45.710;9.590;2022-08-19T08:48:41;9.50;;;4.43;;
72949;SDS011;62720;45.710;9.590;2022-08-19T08:51:10;10.50;;;4.63;;
72949;SDS011;62720;45.710;9.590;2022-08-19T08:53:36;12.90;;;5.30;;
72949;SDS011;62720;45.710;9.590;2022-08-19T08:56:03;13.05;;;4.90;;
72949;SDS011;62720;45.710;9.590;2022-08-19T08:58:42;11.32;;;5.38;;
72949;SDS011;62720;45.710;9.590;2022-08-19T09:01:10;11.50;;;5.25;;
72949;SDS011;62720;45.710;9.590;2022-08-19T09:03:36;10.32;;;4.70;;
72949;SDS011;62720;45.710;9.590;2022-08-19T09:06:03;15.80;;;4.85;;
72949;SDS011;62720;45.710;9.590;2022-08-19T09:08:48;9.45;;;4.65;;
72949;SDS011;62720;45.710;9.590;2022-08-19T09:16:32;11.02;;;5.30;;
72949;SDS011;62720;45.710;9.590;2022-08-19T09:19:03;10.40;;;4.30;;
72949;SDS011;62720;45.710;9.590;2022-08-19T09:21:28;10.38;;;5.88;;
72949;SDS011;62720;45.710;9.590;2022-08-19T09:23:53;13.95;;;5.65;;
72949;SDS011;62720;45.710;9.590;2022-08-19T09:26:19;9.90;;;5.30;;
72949;SDS011;62720;45.710;9.590;2022-08-19T09:28:46;12.23;;;5.18;;
72949;SDS011;62720;45.710;9.590;2022-08-19T09:31:15;10.77;;;5.57;;
72949;SDS011;62720;45.710;9.590;2022-08-19T09:33:40;10.55;;;5.25;;
72949;SDS011;62720;45.710;9.590;2022-08-19T09:36:09;10.38;;;4.63;;
72949;SDS011;62720;45.710;9.590;2022-08-19T09:38:35;9.90;;;4.65;;
72949;SDS011;62720;45.710;9.590;2022-08-19T09:41:02;12.13;;;3.90;;
72949;SDS011;62720;45.710;9.590;2022-08-19T09:43:27;10.43;;;3.65;;
72949;SDS011;62720;45.710;9.590;2022-08-19T09:45:53;9.90;;;3.50;;
72949;SDS011;62720;45.710;9.590;2022-08-19T09:48:18;7.88;;;3.20;;
72949;SDS011;62720;45.710;9.590;2022-08-19T09:50:45;7.18;;;2.50;;
72949;SDS011;62720;45.710;9.590;2022-08-19T09:53:10;8.93;;;2.97;;
72949;SDS011;62720;45.710;9.590;2022-08-19T09:55:35;10.27;;;2.97;;
72949;SDS011;62720;45.710;9.590;2022-08-19T09:58:00;8.10;;;2.67;;
72949;SDS011;62720;45.710;9.590;2022-08-19T10:00:26;8.20;;;2.17;;
72949;SDS011;62720;45.710;9.590;2022-08-19T10:02:51;6.93;;;2.50;;
72949;SDS011;62720;45.710;9.590;2022-08-19T10:05:17;8.80;;;2.20;;
72949;SDS011;62720;45.710;9.590;2022-08-19T10:08:00;10.95;;;2.25;;
72949;SDS011;62720;45.710;9.590;2022-08-19T10:10:27;7.10;;;2.05;;
72949;SDS011;62720;45.710;9.590;2022-08-19T10:12:52;13.82;;;2.50;;
72949;SDS011;62720;45.710;9.590;2022-08-19T10:15:17;13.87;;;2.30;;
72949;SDS011;62720;45.710;9.590;2022-08-19T10:17:50;7.10;;;2.13;;
72949;SDS011;62720;45.710;9.590;2022-08-19T10:20:16;10.40;;;2.88;;
72949;SDS011;62720;45.710;9.590;2022-08-19T10:22:41;10.82;;;2.60;;
72949;SDS011;62720;45.710;9.590;2022-08-19T10:25:08;7.93;;;2.78;;
72949;SDS011;62720;45.710;9.590;2022-08-19T10:27:33;8.88;;;2.65;;
72949;SDS011;62720;45.710;9.590;2022-08-19T10:29:58;7.97;;;2.70;;
72949;SDS011;62720;45.710;9.590;2022-08-19T10:32:24;6.95;;;2.42;;
72949;SDS011;62720;45.710;9.590;2022-08-19T10:34:50;7.10;;;1.88;;
72949;SDS011;62720;45.710;9.590;2022-08-19T10:37:16;7.78;;;2.20;;
72949;SDS011;62720;45.710;9.590;2022-08-19T10:39:45;7.30;;;2.40;;
72949;SDS011;62720;45.710;9.590;2022-08-19T10:42:12;7.78;;;2.35;;
72949;SDS011;62720;45.710;9.590;2022-08-19T10:44:38;9.13;;;2.15;;
72949;SDS011;62720;45.710;9.590;2022-08-19T10:47:04;5.82;;;2.05;;
72949;SDS011;62720;45.710;9.590;2022-08-19T10:49:29;5.68;;;2.10;;
72949;SDS011;62720;45.710;9.590;2022-08-19T10:51:55;7.72;;;2.10;;
72949;SDS011;62720;45.710;9.590;2022-08-19T10:54:39;7.40;;;2.20;;
72949;SDS011;62720;45.710;9.590;2022-08-19T10:57:23;7.13;;;1.63;;
72949;SDS011;62720;45.710;9.590;2022-08-19T10:59:54;5.88;;;1.80;;
72949;SDS011;62720;45.710;9.590;2022-08-19T11:02:19;10.57;;;1.85;;
72949;SDS011;62720;45.710;9.590;2022-08-19T11:04:44;8.33;;;2.20;;
72949;SDS011;62720;45.710;9.590;2022-08-19T11:07:09;9.57;;;2.00;;
72949;SDS011;62720;45.710;9.590;2022-08-19T11:09:38;11.45;;;2.05;;
72949;SDS011;62720;45.710;9.590;2022-08-19T11:12:04;10.10;;;2.20;;
72949;SDS011;62720;45.710;9.590;2022-08-19T11:14:29;11.38;;;2.50;;
72949;SDS011;62720;45.710;9.590;2022-08-19T11:16:56;13.07;;;2.58;;
72949;SDS011;62720;45.710;9.590;2022-08-19T11:19:22;10.32;;;2.85;;
72949;SDS011;62720;45.710;9.590;2022-08-19T11:21:48;9.85;;;2.58;;
72949;SDS011;62720;45.710;9.590;2022-08-19T11:24:21;11.30;;;2.90;;
72949;SDS011;62720;45.710;9.590;2022-08-19T11:26:47;8.70;;;2.60;;
72949;SDS011;62720;45.710;9.590;2022-08-19T11:29:14;8.82;;;2.60;;
72949;SDS011;62720;45.710;9.590;2022-08-19T11:31:41;12.10;;;3.13;;
72949;SDS011;62720;45.710;9.590;2022-08-19T11:34:07;8.68;;;2.65;;
72949;SDS011;62720;45.710;9.590;2022-08-19T11:36:33;10.70;;;3.22;;
72949;SDS011;62720;45.710;9.590;2022-08-19T11:38:59;10.20;;;2.80;;
72949;SDS011;62720;45.710;9.590;2022-08-19T11:41:25;9.07;;;2.88;;
72949;SDS011;62720;45.710;9.590;2022-08-19T11:43:50;9.43;;;3.03;;
72949;SDS011;62720;45.710;9.590;2022-08-19T11:46:17;9.00;;;3.00;;
72949;SDS011;62720;45.710;9.590;2022-08-19T11:48:43;6.57;;;2.58;;
72949;SDS011;62720;45.710;9.590;2022-08-19T11:51:09;8.23;;;2.42;;
72949;SDS011;62720;45.710;9.590;2022-08-19T11:53:35;8.55;;;2.50;;
72949;SDS011;62720;45.710;9.590;2022-08-19T11:56:01;7.93;;;2.75;;
72949;SDS011;62720;45.710;9.590;2022-08-19T11:58:26;9.80;;;2.70;;
72949;SDS011;62720;45.710;9.590;2022-08-19T12:00:52;10.17;;;2.70;;
72949;SDS011;62720;45.710;9.590;2022-08-19T12:03:17;8.27;;;2.65;;
72949;SDS011;62720;45.710;9.590;2022-08-19T12:05:44;8.48;;;2.80;;
72949;SDS011;62720;45.710;9.590;2022-08-19T12:08:09;12.80;;;3.25;;
72949;SDS011;62720;45.710;9.590;2022-08-19T12:10:36;11.45;;;3.53;;
72949;SDS011;62720;45.710;9.590;2022-08-19T12:13:01;9.80;;;2.67;;
72949;SDS011;62720;45.710;9.590;2022-08-19T12:15:27;8.48;;;2.55;;
72949;SDS011;62720;45.710;9.590;2022-08-19T12:17:56;8.13;;;3.20;;
72949;SDS011;62720;45.710;9.590;2022-08-19T12:20:22;10.88;;;3.10;;
72949;SDS011;62720;45.710;9.590;2022-08-19T12:22:48;11.30;;;2.78;;
72949;SDS011;62720;45.710;9.590;2022-08-19T12:25:13;12.85;;;3.08;;
72949;SDS011;62720;45.710;9.590;2022-08-19T12:27:38;13.32;;;3.40;;
72949;SDS011;62720;45.710;9.590;2022-08-19T12:30:04;8.93;;;3.72;;
72949;SDS011;62720;45.710;9.590;2022-08-19T12:32:30;12.27;;;3.33;;
72949;SDS011;62720;45.710;9.590;2022-08-19T12:34:55;14.13;;;3.30;;
72949;SDS011;62720;45.710;9.590;2022-08-19T12:37:20;7.80;;;2.17;;
72949;SDS011;62720;45.710;9.590;2022-08-19T12:39:45;11.95;;;2.40;;
72949;SDS011;62720;45.710;9.590;2022-08-19T12:42:11;10.88;;;2.90;;
72949;SDS011;62720;45.710;9.590;2022-08-19T12:44:38;9.40;;;3.10;;
72949;SDS011;62720;45.710;9.590;2022-08-19T12:47:04;9.88;;;3.58;;
72949;SDS011;62720;45.710;9.590;2022-08-19T12:49:30;18.33;;;3.75;;
72949;SDS011;62720;45.710;9.590;2022-08-19T12:51:56;9.00;;;3.08;;
72949;SDS011;62720;45.710;9.590;2022-08-19T12:54:23;8.18;;;2.45;;
72949;SDS011;62720;45.710;9.590;2022-08-19T12:56:48;11.05;;;3.40;;
72949;SDS011;62720;45.710;9.590;2022-08-19T12:59:13;9.20;;;3.07;;
72949;SDS011;62720;45.710;9.590;2022-08-19T13:01:40;10.25;;;2.70;;
72949;SDS011;62720;45.710;9.590;2022-08-19T13:04:06;7.85;;;2.80;;
72949;SDS011;62720;45.710;9.590;2022-08-19T13:06:32;10.02;;;2.72;;
72949;SDS011;62720;45.710;9.590;2022-08-19T13:08:57;8.17;;;2.40;;
72949;SDS011;62720;45.710;9.590;2022-08-19T13:11:23;14.13;;;2.53;;
72949;SDS011;62720;45.710;9.590;2022-08-19T13:13:49;6.90;;;2.30;;
72949;SDS011;62720;45.710;9.590;2022-08-19T13:16:15;7.60;;;2.90;;
72949;SDS011;62720;45.710;9.590;2022-08-19T13:18:41;7.18;;;2.38;;
72949;SDS011;62720;45.710;9.590;2022-08-19T13:21:08;7.30;;;2.50;;
72949;SDS011;62720;45.710;9.590;2022-08-19T13:23:34;5.88;;;1.73;;
72949;SDS011;62720;45.710;9.590;2022-08-19T13:26:01;6.20;;;2.45;;
72949;SDS011;62720;45.710;9.590;2022-08-19T13:28:27;6.25;;;2.33;;
72949;SDS011;62720;45.710;9.590;2022-08-19T13:31:14;7.57;;;1.90;;
72949;SDS011;62720;45.710;9.590;2022-08-19T13:33:58;6.47;;;2.10;;
72949;SDS011;62720;45.710;9.590;2022-08-19T13:36:23;7.15;;;2.10;;
72949;SDS011;62720;45.710;9.590;2022-08-19T13:38:48;10.87;;;2.43;;
72949;SDS011;62720;45.710;9.590;2022-08-19T13:41:14;5.33;;;1.60;;
72949;SDS011;62720;45.710;9.590;2022-08-19T13:43:39;6.87;;;1.83;;
72949;SDS011;62720;45.710;9.590;2022-08-19T13:46:08;5.75;;;1.55;;
72949;SDS011;62720;45.710;9.590;2022-08-19T13:48:34;8.23;;;1.80;;
72949;SDS011;62720;45.710;9.590;2022-08-19T13:50:59;6.40;;;1.90;;
72949;SDS011;62720;45.710;9.590;2022-08-19T13:53:24;7.50;;;1.90;;
72949;SDS011;62720;45.710;9.590;2022-08-19T13:55:49;5.45;;;1.65;;
72949;SDS011;62720;45.710;9.590;2022-08-19T13:58:16;10.38;;;1.73;;
72949;SDS011;62720;45.710;9.590;2022-08-19T14:00:43;6.07;;;1.90;;
72949;SDS011;62720;45.710;9.590;2022-08-19T14:03:08;6.93;;;2.28;;
72949;SDS011;62720;45.710;9.590;2022-08-19T14:05:34;7.88;;;1.65;;
72949;SDS011;62720;45.710;9.590;2022-08-19T14:07:59;5.05;;;1.98;;
72949;SDS011;62720;45.710;9.590;2022-08-19T14:10:25;6.57;;;2.25;;
72949;SDS011;62720;45.710;9.590;2022-08-19T14:12:54;15.02;;;2.30;;
72949;SDS011;62720;45.710;9.590;2022-08-19T14:15:20;6.18;;;1.92;;
72949;SDS011;62720;45.710;9.590;2022-08-19T14:17:46;6.03;;;1.83;;
72949;SDS011;62720;45.710;9.590;2022-08-19T14:20:13;9.30;;;1.70;;
72949;SDS011;62720;45.710;9.590;2022-08-19T14:22:40;18.55;;;2.03;;
72949;SDS011;62720;45.710;9.590;2022-08-19T14:25:07;11.85;;;1.50;;
72949;SDS011;62720;45.710;9.590;2022-08-19T14:27:33;10.95;;;1.60;;
72949;SDS011;62720;45.710;9.590;2022-08-19T14:29:58;7.57;;;1.35;;
72949;SDS011;62720;45.710;9.590;2022-08-19T14:32:24;6.05;;;1.30;;
72949;SDS011;62720;45.710;9.590;2022-08-19T14:34:52;7.85;;;1.67;;
72949;SDS011;62720;45.710;9.590;2022-08-19T14:37:17;4.63;;;1.35;;
72949;SDS011;62720;45.710;9.590;2022-08-19T14:39:42;6.77;;;1.20;;
72949;SDS011;62720;45.710;9.590;2022-08-19T14:42:09;9.07;;;1.30;;
72949;SDS011;62720;45.710;9.590;2022-08-19T14:44:34;19.80;;;1.75;;
72949;SDS011;62720;45.710;9.590;2022-08-19T14:47:00;5.97;;;1.33;;
72949;SDS011;62720;45.710;9.590;2022-08-19T14:49:25;5.38;;;1.20;;
72949;SDS011;62720;45.710;9.590;2022-08-19T14:51:50;14.23;;;1.97;;
72949;SDS011;62720;45.710;9.590;2022-08-19T14:54:16;3.65;;;1.20;;